sensor_id;sensor_type;location;lat;lon;timestamp;pressure;altitude;pressure_sealevel;temperature;humidity
78835;BME280;68187;42.682;23.352;2024-02-26T00:00:09;94742.16;;;7.66;82.05
78835;BME280;68187;42.682;23.352;2024-02-26T00:02:37;94745.09;;;7.69;81.84
78835;BME280;68187;42.682;23.352;2024-02-26T00:05:06;94739.78;;;7.64;81.73
78835;BME280;68187;42.682;23.352;2024-02-26T00:07:33;94726.38;;;7.66;82.17
78835;BME280;68187;42.682;23.352;2024-02-26T00:10:00;94734.00;;;7.62;81.82
78835;BME280;68187;42.682;23.352;2024-02-26T00:12:27;94725.34;;;7.67;81.93
78835;BME280;68187;42.682;23.352;2024-02-26T00:14:54;94725.63;;;7.65;82.37
78835;BME280;68187;42.682;23.352;2024-02-26T00:17:23;94728.25;;;7.70;82.12
78835;BME280;68187;42.682;23.352;2024-02-26T00:19:52;94733.00;;;7.73;81.54
78835;BME280;68187;42.682;23.352;2024-02-26T00:22:18;94733.50;;;7.65;81.77
78835;BME280;68187;42.682;23.352;2024-02-26T00:24:47;94723.78;;;7.71;81.91
78835;BME280;68187;42.682;23.352;2024-02-26T00:27:14;94726.94;;;7.73;81.94
78835;BME280;68187;42.682;23.352;2024-02-26T00:29:41;94723.53;;;7.67;82.58
78835;BME280;68187;42.682;23.352;2024-02-26T00:32:08;94727.38;;;7.55;82.82
78835;BME280;68187;42.682;23.352;2024-02-26T00:34:34;94720.00;;;7.47;83.11
78835;BME280;68187;42.682;23.352;2024-02-26T00:37:03;94715.06;;;7.55;82.85
78835;BME280;68187;42.682;23.352;2024-02-26T00:39:30;94706.41;;;7.60;82.96
78835;BME280;68187;42.682;23.352;2024-02-26T00:41:56;94707.19;;;7.60;82.71
78835;BME280;68187;42.682;23.352;2024-02-26T00:44:23;94708.22;;;7.59;83.05
78835;BME280;68187;42.682;23.352;2024-02-26T00:46:49;94700.31;;;7.54;83.18
78835;BME280;68187;42.682;23.352;2024-02-26T00:49:16;94699.81;;;7.57;83.24
78835;BME280;68187;42.682;23.352;2024-02-26T00:51:43;94692.50;;;7.64;82.80
78835;BME280;68187;42.682;23.352;2024-02-26T00:54:11;94689.63;;;7.71;82.99
78835;BME280;68187;42.682;23.352;2024-02-26T00:56:38;94694.09;;;7.75;82.84
78835;BME280;68187;42.682;23.352;2024-02-26T00:59:05;94692.81;;;7.78;82.96
78835;BME280;68187;42.682;23.352;2024-02-26T01:01:32;94688.06;;;7.75;83.25
78835;BME280;68187;42.682;23.352;2024-02-26T01:03:59;94685.72;;;7.78;83.03
78835;BME280;68187;42.682;23.352;2024-02-26T01:06:26;94681.25;;;7.79;83.63
78835;BME280;68187;42.682;23.352;2024-02-26T01:08:53;94670.22;;;7.82;83.85
78835;BME280;68187;42.682;23.352;2024-02-26T01:11:21;94678.38;;;7.85;83.32
78835;BME280;68187;42.682;23.352;2024-02-26T01:13:48;94683.34;;;7.82;83.38
78835;BME280;68187;42.682;23.352;2024-02-26T01:16:18;94672.88;;;7.87;83.42
78835;BME280;68187;42.682;23.352;2024-02-26T01:18:46;94685.22;;;7.86;83.01
78835;BME280;68187;42.682;23.352;2024-02-26T01:21:13;94673.66;;;7.87;83.25
78835;BME280;68187;42.682;23.352;2024-02-26T01:23:40;94680.00;;;7.97;82.71
78835;BME280;68187;42.682;23.352;2024-02-26T01:26:08;94685.28;;;8.02;82.72
78835;BME280;68187;42.682;23.352;2024-02-26T01:28:36;94684.22;;;8.08;82.35
78835;BME280;68187;42.682;23.352;2024-02-26T01:31:03;94680.81;;;8.07;82.36
78835;BME280;68187;42.682;23.352;2024-02-26T01:33:32;94676.31;;;7.98;83.28
78835;BME280;68187;42.682;23.352;2024-02-26T01:35:59;94679.47;;;8.00;82.78
78835;BME280;68187;42.682;23.352;2024-02-26T01:38:26;94678.16;;;8.02;83.02
78835;BME280;68187;42.682;23.352;2024-02-26T01:40:53;94673.69;;;8.03;82.67
78835;BME280;68187;42.682;23.352;2024-02-26T01:43:20;94677.66;;;8.05;82.50
78835;BME280;68187;42.682;23.352;2024-02-26T01:45:48;94667.91;;;8.01;83.22
78835;BME280;68187;42.682;23.352;2024-02-26T01:48:15;94664.22;;;8.07;82.68
78835;BME280;68187;42.682;23.352;2024-02-26T01:50:42;94665.31;;;8.11;82.50
78835;BME280;68187;42.682;23.352;2024-02-26T01:53:09;94661.63;;;8.12;82.25
78835;BME280;68187;42.682;23.352;2024-02-26T01:55:36;94666.34;;;8.10;82.35
78835;BME280;68187;42.682;23.352;2024-02-26T01:58:04;94661.88;;;8.10;82.33
78835;BME280;68187;42.682;23.352;2024-02-26T02:00:32;94668.44;;;8.08;82.25
78835;BME280;68187;42.682;23.352;2024-02-26T02:03:01;94657.41;;;8.06;82.62
78835;BME280;68187;42.682;23.352;2024-02-26T02:05:28;94660.03;;;8.06;82.42
78835;BME280;68187;42.682;23.352;2024-02-26T02:07:56;94664.50;;;8.05;82.89
78835;BME280;68187;42.682;23.352;2024-02-26T02:10:25;94664.75;;;8.09;82.53
78835;BME280;68187;42.682;23.352;2024-02-26T02:12:53;94656.09;;;8.08;82.21
78835;BME280;68187;42.682;23.352;2024-02-26T02:15:20;94655.31;;;8.08;82.47
78835;BME280;68187;42.682;23.352;2024-02-26T02:17:47;94648.72;;;8.05;82.55
78835;BME280;68187;42.682;23.352;2024-02-26T02:20:17;94655.78;;;8.00;82.14
78835;BME280;68187;42.682;23.352;2024-02-26T02:22:46;94662.13;;;7.99;82.89
78835;BME280;68187;42.682;23.352;2024-02-26T02:25:13;94658.69;;;7.98;82.73
78835;BME280;68187;42.682;23.352;2024-02-26T02:27:41;94659.75;;;8.02;82.84
78835;BME280;68187;42.682;23.352;2024-02-26T02:30:09;94657.13;;;8.02;82.56
78835;BME280;68187;42.682;23.352;2024-02-26T02:32:37;94647.91;;;8.00;82.12
78835;BME280;68187;42.682;23.352;2024-02-26T02:35:06;94654.25;;;8.04;82.54
78835;BME280;68187;42.682;23.352;2024-02-26T02:37:34;94652.16;;;8.06;82.22
78835;BME280;68187;42.682;23.352;2024-02-26T02:40:02;94656.88;;;8.04;82.37
78835;BME280;68187;42.682;23.352;2024-02-26T02:42:30;94664.75;;;7.99;82.30
78835;BME280;68187;42.682;23.352;2024-02-26T02:44:57;94657.66;;;7.99;82.95
78835;BME280;68187;42.682;23.352;2024-02-26T02:47:24;94660.81;;;8.01;82.89
78835;BME280;68187;42.682;23.352;2024-02-26T02:49:51;94661.34;;;8.03;82.73
78835;BME280;68187;42.682;23.352;2024-02-26T02:52:18;94667.38;;;8.09;82.44
78835;BME280;68187;42.682;23.352;2024-02-26T02:54:45;94671.88;;;8.08;82.34
78835;BME280;68187;42.682;23.352;2024-02-26T02:57:13;94664.00;;;8.08;82.52
78835;BME280;68187;42.682;23.352;2024-02-26T02:59:40;94667.94;;;8.11;82.70
78835;BME280;68187;42.682;23.352;2024-02-26T03:02:07;94675.03;;;8.10;82.57
78835;BME280;68187;42.682;23.352;2024-02-26T03:04:34;94670.56;;;8.11;83.03
78835;BME280;68187;42.682;23.352;2024-02-26T03:07:01;94667.41;;;8.14;82.38
78835;BME280;68187;42.682;23.352;2024-02-26T03:09:28;94673.72;;;8.13;82.57
78835;BME280;68187;42.682;23.352;2024-02-26T03:11:55;94682.94;;;8.15;82.47
78835;BME280;68187;42.682;23.352;2024-02-26T03:14:23;94678.72;;;8.19;82.29
78835;BME280;68187;42.682;23.352;2024-02-26T03:16:54;94670.56;;;8.16;82.19
78835;BME280;68187;42.682;23.352;2024-02-26T03:19:21;94670.31;;;8.17;82.26
78835;BME280;68187;42.682;23.352;2024-02-26T03:21:48;94666.88;;;8.12;82.57
78835;BME280;68187;42.682;23.352;2024-02-26T03:24:15;94664.75;;;8.09;82.88
78835;BME280;68187;42.682;23.352;2024-02-26T03:26:42;94660.81;;;8.11;82.79
78835;BME280;68187;42.682;23.352;2024-02-26T03:29:09;94656.88;;;8.04;82.89
78835;BME280;68187;42.682;23.352;2024-02-26T03:31:37;94650.31;;;8.06;82.67
78835;BME280;68187;42.682;23.352;2024-02-26T03:34:04;94650.03;;;8.08;82.89
78835;BME280;68187;42.682;23.352;2024-02-26T03:36:31;94654.50;;;8.07;82.76
78835;BME280;68187;42.682;23.352;2024-02-26T03:38:57;94649.50;;;8.06;82.41
78835;BME280;68187;42.682;23.352;2024-02-26T03:41:25;94648.69;;;8.00;82.81
78835;BME280;68187;42.682;23.352;2024-02-26T03:43:52;94651.84;;;8.02;82.89
78835;BME280;68187;42.682;23.352;2024-02-26T03:46:18;94646.88;;;8.01;82.57
78835;BME280;68187;42.682;23.352;2024-02-26T03:48:47;94653.16;;;8.00;82.95
78835;BME280;68187;42.682;23.352;2024-02-26T03:51:14;94652.41;;;7.99;83.14
78835;BME280;68187;42.682;23.352;2024-02-26T03:53:41;94644.50;;;7.99;82.78
78835;BME280;68187;42.682;23.352;2024-02-26T03:56:08;94640.53;;;7.91;83.11
78835;BME280;68187;42.682;23.352;2024-02-26T03:58:35;94649.47;;;7.96;83.08
78835;BME280;68187;42.682;23.352;2024-02-26T04:01:02;94640.78;;;7.95;82.68
78835;BME280;68187;42.682;23.352;2024-02-26T04:03:29;94645.81;;;7.97;82.58
78835;BME280;68187;42.682;23.352;2024-02-26T04:05:57;94651.06;;;7.91;82.65
78835;BME280;68187;42.682;23.352;2024-02-26T04:08:24;94633.69;;;7.90;82.88
78835;BME280;68187;42.682;23.352;2024-02-26T04:10:51;94635.53;;;7.90;82.82
78835;BME280;68187;42.682;23.352;2024-02-26T04:13:18;94635.78;;;7.88;83.36
78835;BME280;68187;42.682;23.352;2024-02-26T04:15:45;94641.06;;;7.93;82.88
78835;BME280;68187;42.682;23.352;2024-02-26T04:18:12;94630.28;;;7.95;82.64
78835;BME280;68187;42.682;23.352;2024-02-26T04:20:39;94630.28;;;7.95;82.85
78835;BME280;68187;42.682;23.352;2024-02-26T04:23:09;94628.19;;;7.97;83.09
78835;BME280;68187;42.682;23.352;2024-02-26T04:25:35;94627.91;;;7.93;83.34
78835;BME280;68187;42.682;23.352;2024-02-26T04:28:03;94628.97;;;7.93;83.24
78835;BME280;68187;42.682;23.352;2024-02-26T04:30:30;94625.03;;;7.95;82.94
78835;BME280;68187;42.682;23.352;2024-02-26T04:32:56;94627.13;;;7.93;83.02
78835;BME280;68187;42.682;23.352;2024-02-26T04:35:23;94627.41;;;7.97;83.19
78835;BME280;68187;42.682;23.352;2024-02-26T04:37:50;94628.97;;;7.98;83.10
78835;BME280;68187;42.682;23.352;2024-02-26T04:40:18;94634.22;;;7.98;82.95
78835;BME280;68187;42.682;23.352;2024-02-26T04:42:45;94633.19;;;7.99;82.93
78835;BME280;68187;42.682;23.352;2024-02-26T04:45:12;94641.59;;;8.01;83.12
78835;BME280;68187;42.682;23.352;2024-02-26T04:47:39;94639.50;;;7.98;83.29
78835;BME280;68187;42.682;23.352;2024-02-26T04:50:06;94639.78;;;8.01;82.99
78835;BME280;68187;42.682;23.352;2024-02-26T04:52:33;94634.25;;;8.03;82.84
78835;BME280;68187;42.682;23.352;2024-02-26T04:55:00;94634.75;;;7.95;82.83
78835;BME280;68187;42.682;23.352;2024-02-26T04:57:29;94645.53;;;7.93;83.25
78835;BME280;68187;42.682;23.352;2024-02-26T04:59:56;94638.72;;;7.97;83.36
78835;BME280;68187;42.682;23.352;2024-02-26T05:02:23;94650.50;;;7.84;83.63
78835;BME280;68187;42.682;23.352;2024-02-26T05:04:50;94649.22;;;7.92;82.94
78835;BME280;68187;42.682;23.352;2024-02-26T05:07:17;94650.53;;;7.95;82.99
78835;BME280;68187;42.682;23.352;2024-02-26T05:09:44;94653.44;;;7.98;83.01
78835;BME280;68187;42.682;23.352;2024-02-26T05:14:58;94658.19;;;8.01;81.73
78835;BME280;68187;42.682;23.352;2024-02-26T05:17:25;94671.84;;;7.98;81.51
78835;BME280;68187;42.682;23.352;2024-02-26T05:19:52;94678.16;;;7.97;81.79
78835;BME280;68187;42.682;23.352;2024-02-26T05:22:19;94676.06;;;7.99;82.03
78835;BME280;68187;42.682;23.352;2024-02-26T05:24:46;94677.59;;;7.95;81.35
78835;BME280;68187;42.682;23.352;2024-02-26T05:27:13;94682.63;;;7.97;81.77
78835;BME280;68187;42.682;23.352;2024-02-26T05:29:40;94687.63;;;7.98;81.90
78835;BME280;68187;42.682;23.352;2024-02-26T05:32:08;94688.66;;;8.02;81.39
78835;BME280;68187;42.682;23.352;2024-02-26T05:34:35;94686.03;;;8.02;81.47
78835;BME280;68187;42.682;23.352;2024-02-26T05:37:02;94688.16;;;8.05;81.36
78835;BME280;68187;42.682;23.352;2024-02-26T05:39:29;94697.38;;;8.08;81.61
78835;BME280;68187;42.682;23.352;2024-02-26T05:41:56;94694.22;;;8.06;80.88
78835;BME280;68187;42.682;23.352;2024-02-26T05:44:26;94690.03;;;8.10;81.53
78835;BME280;68187;42.682;23.352;2024-02-26T05:46:53;94704.47;;;8.07;81.69
78835;BME280;68187;42.682;23.352;2024-02-26T05:49:22;94686.84;;;8.08;81.44
78835;BME280;68187;42.682;23.352;2024-02-26T05:51:49;94695.53;;;8.08;81.38
78835;BME280;68187;42.682;23.352;2024-02-26T05:54:16;94697.88;;;8.05;81.67
78835;BME280;68187;42.682;23.352;2024-02-26T05:56:43;94696.06;;;8.10;81.21
78835;BME280;68187;42.682;23.352;2024-02-26T05:59:10;94697.09;;;8.09;81.70
78835;BME280;68187;42.682;23.352;2024-02-26T06:01:36;94698.44;;;8.12;81.63
78835;BME280;68187;42.682;23.352;2024-02-26T06:04:03;94701.09;;;8.17;81.57
78835;BME280;68187;42.682;23.352;2024-02-26T06:06:32;94701.88;;;8.17;81.71
78835;BME280;68187;42.682;23.352;2024-02-26T06:08:59;94711.09;;;8.20;82.13
78835;BME280;68187;42.682;23.352;2024-02-26T06:11:25;94712.94;;;8.19;81.94
78835;BME280;68187;42.682;23.352;2024-02-26T06:13:52;94714.75;;;8.19;81.74
78835;BME280;68187;42.682;23.352;2024-02-26T06:16:19;94720.81;;;8.19;81.75
78835;BME280;68187;42.682;23.352;2024-02-26T06:18:46;94717.91;;;8.21;81.61
78835;BME280;68187;42.682;23.352;2024-02-26T06:21:13;94723.75;;;8.28;82.04
78835;BME280;68187;42.682;23.352;2024-02-26T06:23:41;94713.75;;;8.30;81.41
78835;BME280;68187;42.682;23.352;2024-02-26T06:26:08;94715.88;;;8.33;81.28
78835;BME280;68187;42.682;23.352;2024-02-26T06:28:35;94718.53;;;8.38;81.96
78835;BME280;68187;42.682;23.352;2024-02-26T06:31:06;94719.06;;;8.40;81.42
78835;BME280;68187;42.682;23.352;2024-02-26T06:33:33;94712.22;;;8.44;81.00
78835;BME280;68187;42.682;23.352;2024-02-26T06:36:00;94715.66;;;8.44;81.20
78835;BME280;68187;42.682;23.352;2024-02-26T06:38:27;94720.63;;;8.46;81.15
78835;BME280;68187;42.682;23.352;2024-02-26T06:40:55;94718.00;;;8.46;81.04
78835;BME280;68187;42.682;23.352;2024-02-26T06:43:22;94712.75;;;8.46;80.84
78835;BME280;68187;42.682;23.352;2024-02-26T06:45:49;94719.84;;;8.50;80.53
78835;BME280;68187;42.682;23.352;2024-02-26T06:48:16;94713.00;;;8.54;81.16
78835;BME280;68187;42.682;23.352;2024-02-26T06:50:42;94719.34;;;8.58;80.69
78835;BME280;68187;42.682;23.352;2024-02-26T06:53:10;94715.16;;;8.63;80.33
78835;BME280;68187;42.682;23.352;2024-02-26T06:55:36;94712.25;;;8.64;80.46
78835;BME280;68187;42.682;23.352;2024-02-26T06:58:07;94712.75;;;8.66;80.21
78835;BME280;68187;42.682;23.352;2024-02-26T07:00:34;94714.88;;;8.69;80.05
78835;BME280;68187;42.682;23.352;2024-02-26T07:03:01;94719.34;;;8.74;79.60
78835;BME280;68187;42.682;23.352;2024-02-26T07:05:29;94727.00;;;8.80;79.77
78835;BME280;68187;42.682;23.352;2024-02-26T07:07:56;94721.97;;;8.84;79.79
78835;BME280;68187;42.682;23.352;2024-02-26T07:10:23;94715.69;;;8.85;79.23
78835;BME280;68187;42.682;23.352;2024-02-26T07:12:50;94716.19;;;8.87;79.32
78835;BME280;68187;42.682;23.352;2024-02-26T07:15:18;94730.69;;;8.89;78.94
78835;BME280;68187;42.682;23.352;2024-02-26T07:17:45;94721.75;;;8.90;78.94
78835;BME280;68187;42.682;23.352;2024-02-26T07:20:14;94730.69;;;8.89;78.75
78835;BME280;68187;42.682;23.352;2024-02-26T07:22:41;94734.13;;;8.90;78.68
78835;BME280;68187;42.682;23.352;2024-02-26T07:25:08;94732.81;;;8.92;79.09
78835;BME280;68187;42.682;23.352;2024-02-26T07:27:38;94734.38;;;8.93;79.24
78835;BME280;68187;42.682;23.352;2024-02-26T07:30:07;94729.63;;;8.95;78.56
78835;BME280;68187;42.682;23.352;2024-02-26T07:32:36;94733.34;;;8.99;78.48
78835;BME280;68187;42.682;23.352;2024-02-26T07:35:03;94713.31;;;9.08;78.45
78835;BME280;68187;42.682;23.352;2024-02-26T07:37:30;94725.94;;;9.16;78.45
78835;BME280;68187;42.682;23.352;2024-02-26T07:39:57;94731.19;;;9.21;78.27
78835;BME280;68187;42.682;23.352;2024-02-26T07:42:24;94734.09;;;9.25;78.05
78835;BME280;68187;42.682;23.352;2024-02-26T07:44:51;94731.44;;;9.25;78.12
78835;BME280;68187;42.682;23.352;2024-02-26T07:47:18;94728.56;;;9.21;78.11
78835;BME280;68187;42.682;23.352;2024-02-26T07:49:46;94723.31;;;9.26;77.96
78835;BME280;68187;42.682;23.352;2024-02-26T07:52:13;94722.75;;;9.29;78.55
78835;BME280;68187;42.682;23.352;2024-02-26T07:54:40;94730.13;;;9.32;77.85
78835;BME280;68187;42.682;23.352;2024-02-26T07:57:07;94725.66;;;9.33;78.23
78835;BME280;68187;42.682;23.352;2024-02-26T07:59:34;94728.53;;;9.37;78.43
78835;BME280;68187;42.682;23.352;2024-02-26T08:02:01;94722.69;;;9.50;77.92
78835;BME280;68187;42.682;23.352;2024-02-26T08:04:28;94715.56;;;9.60;76.78
78835;BME280;68187;42.682;23.352;2024-02-26T08:06:57;94714.78;;;9.65;76.46
78835;BME280;68187;42.682;23.352;2024-02-26T08:09:24;94716.59;;;9.69;77.26
78835;BME280;68187;42.682;23.352;2024-02-26T08:11:51;94716.03;;;9.77;77.17
78835;BME280;68187;42.682;23.352;2024-02-26T08:14:17;94715.81;;;9.74;77.23
78835;BME280;68187;42.682;23.352;2024-02-26T08:16:44;94713.19;;;9.69;76.85
78835;BME280;68187;42.682;23.352;2024-02-26T08:19:11;94721.88;;;9.64;76.92
78835;BME280;68187;42.682;23.352;2024-02-26T08:21:40;94717.91;;;9.72;77.18
78835;BME280;68187;42.682;23.352;2024-02-26T08:24:08;94715.00;;;9.73;77.16
78835;BME280;68187;42.682;23.352;2024-02-26T08:26:35;94715.22;;;9.82;76.46
78835;BME280;68187;42.682;23.352;2024-02-26T08:29:02;94721.00;;;9.89;76.71
78835;BME280;68187;42.682;23.352;2024-02-26T08:31:29;94724.94;;;10.01;76.22
78835;BME280;68187;42.682;23.352;2024-02-26T08:33:56;94709.31;;;10.10;75.95
78835;BME280;68187;42.682;23.352;2024-02-26T08:36:24;94713.00;;;10.19;75.03
78835;BME280;68187;42.682;23.352;2024-02-26T08:38:51;94707.13;;;10.32;74.65
78835;BME280;68187;42.682;23.352;2024-02-26T08:41:19;94711.84;;;10.40;73.89
78835;BME280;68187;42.682;23.352;2024-02-26T08:43:46;94706.75;;;10.54;73.83
78835;BME280;68187;42.682;23.352;2024-02-26T08:46:13;94709.84;;;10.61;74.24
78835;BME280;68187;42.682;23.352;2024-02-26T08:48:40;94705.03;;;10.68;73.17
78835;BME280;68187;42.682;23.352;2024-02-26T08:51:07;94708.91;;;10.81;72.03
78835;BME280;68187;42.682;23.352;2024-02-26T08:53:35;94711.53;;;10.86;71.06
78835;BME280;68187;42.682;23.352;2024-02-26T08:56:02;94706.16;;;10.96;71.17
78835;BME280;68187;42.682;23.352;2024-02-26T08:58:31;94705.00;;;11.07;71.81
78835;BME280;68187;42.682;23.352;2024-02-26T09:00:58;94707.78;;;11.20;71.90
78835;BME280;68187;42.682;23.352;2024-02-26T09:03:25;94708.53;;;11.26;71.76
78835;BME280;68187;42.682;23.352;2024-02-26T09:05:51;94689.47;;;11.29;71.83
78835;BME280;68187;42.682;23.352;2024-02-26T09:08:18;94697.84;;;11.36;72.25
78835;BME280;68187;42.682;23.352;2024-02-26T09:10:45;94697.56;;;11.42;71.01
78835;BME280;68187;42.682;23.352;2024-02-26T09:13:12;94692.47;;;11.46;70.51
78835;BME280;68187;42.682;23.352;2024-02-26T09:15:40;94691.94;;;11.49;70.35
78835;BME280;68187;42.682;23.352;2024-02-26T09:18:07;94700.06;;;11.53;68.20
78835;BME280;68187;42.682;23.352;2024-02-26T09:20:34;94697.88;;;11.60;68.21
78835;BME280;68187;42.682;23.352;2024-02-26T09:23:01;94694.41;;;11.64;68.06
78835;BME280;68187;42.682;23.352;2024-02-26T09:25:29;94682.13;;;11.78;68.10
78835;BME280;68187;42.682;23.352;2024-02-26T09:27:56;94689.16;;;11.88;68.14
78835;BME280;68187;42.682;23.352;2024-02-26T09:30:23;94691.38;;;11.99;67.09
78835;BME280;68187;42.682;23.352;2024-02-26T09:32:51;94676.56;;;11.98;66.19
78835;BME280;68187;42.682;23.352;2024-02-26T09:35:18;94686.97;;;12.13;64.98
78835;BME280;68187;42.682;23.352;2024-02-26T09:37:46;94685.31;;;12.17;64.70
78835;BME280;68187;42.682;23.352;2024-02-26T09:40:14;94676.75;;;12.26;65.17
78835;BME280;68187;42.682;23.352;2024-02-26T09:42:43;94677.75;;;12.30;64.64
78835;BME280;68187;42.682;23.352;2024-02-26T09:45:12;94676.38;;;12.32;64.29
78835;BME280;68187;42.682;23.352;2024-02-26T09:47:44;94679.66;;;12.43;63.69
78835;BME280;68187;42.682;23.352;2024-02-26T09:50:14;94668.44;;;12.51;63.00
78835;BME280;68187;42.682;23.352;2024-02-26T09:52:43;94676.31;;;12.56;63.37
78835;BME280;68187;42.682;23.352;2024-02-26T09:55:11;94674.19;;;12.58;62.16
78835;BME280;68187;42.682;23.352;2024-02-26T09:57:38;94675.09;;;12.67;62.32
78835;BME280;68187;42.682;23.352;2024-02-26T10:00:09;94669.44;;;12.73;61.90
78835;BME280;68187;42.682;23.352;2024-02-26T10:02:39;94665.00;;;12.69;61.10
78835;BME280;68187;42.682;23.352;2024-02-26T10:05:07;94666.06;;;12.68;60.84
78835;BME280;68187;42.682;23.352;2024-02-26T10:07:38;94669.63;;;12.77;60.17
78835;BME280;68187;42.682;23.352;2024-02-26T10:10:05;94669.72;;;12.72;60.11
78835;BME280;68187;42.682;23.352;2024-02-26T10:12:33;94668.06;;;12.76;59.22
78835;BME280;68187;42.682;23.352;2024-02-26T10:15:00;94665.91;;;12.78;59.31
78835;BME280;68187;42.682;23.352;2024-02-26T10:17:27;94671.63;;;12.85;59.52
78835;BME280;68187;42.682;23.352;2024-02-26T10:19:54;94652.97;;;12.76;59.38
78835;BME280;68187;42.682;23.352;2024-02-26T10:22:22;94654.63;;;12.86;59.62
78835;BME280;68187;42.682;23.352;2024-02-26T10:24:50;94647.91;;;12.94;59.20
78835;BME280;68187;42.682;23.352;2024-02-26T10:27:18;94647.41;;;12.92;58.92
78835;BME280;68187;42.682;23.352;2024-02-26T10:29:46;94649.69;;;12.98;58.75
78835;BME280;68187;42.682;23.352;2024-02-26T10:32:13;94643.00;;;13.01;59.05
78835;BME280;68187;42.682;23.352;2024-02-26T10:34:40;94644.00;;;13.05;58.55
78835;BME280;68187;42.682;23.352;2024-02-26T10:37:07;94635.13;;;13.14;57.75
78835;BME280;68187;42.682;23.352;2024-02-26T10:39:36;94635.91;;;13.15;58.10
78835;BME280;68187;42.682;23.352;2024-02-26T10:42:05;94630.59;;;13.15;57.45
78835;BME280;68187;42.682;23.352;2024-02-26T10:44:35;94627.09;;;13.19;57.46
78835;BME280;68187;42.682;23.352;2024-02-26T10:47:02;94625.38;;;13.10;58.02
78835;BME280;68187;42.682;23.352;2024-02-26T10:49:29;94622.78;;;13.05;57.82
78835;BME280;68187;42.682;23.352;2024-02-26T10:51:56;94617.75;;;13.08;57.48
78835;BME280;68187;42.682;23.352;2024-02-26T10:54:26;94609.84;;;13.03;58.52
78835;BME280;68187;42.682;23.352;2024-02-26T10:56:56;94616.47;;;13.19;58.31
78835;BME280;68187;42.682;23.352;2024-02-26T10:59:24;94614.69;;;13.15;57.37
78835;BME280;68187;42.682;23.352;2024-02-26T11:01:51;94620.91;;;13.24;57.70
78835;BME280;68187;42.682;23.352;2024-02-26T11:04:20;94622.56;;;13.33;57.07
78835;BME280;68187;42.682;23.352;2024-02-26T11:06:49;94616.88;;;13.26;56.68
78835;BME280;68187;42.682;23.352;2024-02-26T11:09:17;94611.94;;;13.33;56.95
78835;BME280;68187;42.682;23.352;2024-02-26T11:11:46;94613.03;;;13.32;57.23
78835;BME280;68187;42.682;23.352;2024-02-26T11:14:14;94611.47;;;13.31;56.09
78835;BME280;68187;42.682;23.352;2024-02-26T11:16:42;94609.22;;;13.38;56.17
78835;BME280;68187;42.682;23.352;2024-02-26T11:19:10;94607.03;;;13.40;56.27
78835;BME280;68187;42.682;23.352;2024-02-26T11:21:39;94602.75;;;13.44;56.50
78835;BME280;68187;42.682;23.352;2024-02-26T11:24:09;94604.31;;;13.45;56.52
78835;BME280;68187;42.682;23.352;2024-02-26T11:26:40;94607.66;;;13.51;56.33
78835;BME280;68187;42.682;23.352;2024-02-26T11:29:11;94609.59;;;13.45;55.88
78835;BME280;68187;42.682;23.352;2024-02-26T11:31:39;94604.78;;;13.47;55.77
78835;BME280;68187;42.682;23.352;2024-02-26T11:34:09;94602.13;;;13.47;55.86
78835;BME280;68187;42.682;23.352;2024-02-26T11:36:36;94594.38;;;13.51;55.71
78835;BME280;68187;42.682;23.352;2024-02-26T11:39:04;94597.72;;;13.56;55.97
78835;BME280;68187;42.682;23.352;2024-02-26T11:41:31;94597.03;;;13.65;56.17
78835;BME280;68187;42.682;23.352;2024-02-26T11:44:00;94595.44;;;13.64;55.52
78835;BME280;68187;42.682;23.352;2024-02-26T11:46:28;94594.47;;;13.59;55.06
78835;BME280;68187;42.682;23.352;2024-02-26T11:49:00;94586.91;;;13.67;54.72
78835;BME280;68187;42.682;23.352;2024-02-26T11:51:32;94589.47;;;13.72;55.07
78835;BME280;68187;42.682;23.352;2024-02-26T11:54:00;94585.91;;;13.76;54.76
78835;BME280;68187;42.682;23.352;2024-02-26T11:56:27;94582.09;;;13.69;54.17
78835;BME280;68187;42.682;23.352;2024-02-26T11:59:03;94586.41;;;13.65;53.91
78835;BME280;68187;42.682;23.352;2024-02-26T12:01:43;94583.47;;;13.52;54.25
78835;BME280;68187;42.682;23.352;2024-02-26T12:04:14;94577.78;;;13.45;54.50
78835;BME280;68187;42.682;23.352;2024-02-26T12:06:45;94578.38;;;13.42;54.64
78835;BME280;68187;42.682;23.352;2024-02-26T12:09:13;94579.44;;;13.55;53.89
78835;BME280;68187;42.682;23.352;2024-02-26T12:11:41;94581.13;;;13.65;53.99
78835;BME280;68187;42.682;23.352;2024-02-26T12:14:09;94580.72;;;13.71;53.93
78835;BME280;68187;42.682;23.352;2024-02-26T12:16:38;94576.59;;;13.79;53.78
78835;BME280;68187;42.682;23.352;2024-02-26T12:19:05;94583.94;;;13.82;53.30
78835;BME280;68187;42.682;23.352;2024-02-26T12:21:34;94583.03;;;13.86;52.73
78835;BME280;68187;42.682;23.352;2024-02-26T12:24:14;94583.63;;;13.97;52.67
78835;BME280;68187;42.682;23.352;2024-02-26T12:26:42;94583.28;;;14.12;52.39
78835;BME280;68187;42.682;23.352;2024-02-26T12:29:09;94585.59;;;14.27;51.92
78835;BME280;68187;42.682;23.352;2024-02-26T12:31:36;94574.31;;;14.21;51.05
78835;BME280;68187;42.682;23.352;2024-02-26T12:34:04;94592.13;;;14.21;50.88
78835;BME280;68187;42.682;23.352;2024-02-26T12:36:32;94582.16;;;14.26;50.21
78835;BME280;68187;42.682;23.352;2024-02-26T12:39:00;94586.25;;;14.46;50.82
78835;BME280;68187;42.682;23.352;2024-02-26T12:41:29;94588.91;;;14.46;49.94
78835;BME280;68187;42.682;23.352;2024-02-26T12:43:57;94586.00;;;14.56;50.13
78835;BME280;68187;42.682;23.352;2024-02-26T12:46:24;94584.69;;;14.67;49.96
78835;BME280;68187;42.682;23.352;2024-02-26T12:48:51;94581.47;;;14.79;49.16
78835;BME280;68187;42.682;23.352;2024-02-26T12:51:19;94579.88;;;15.00;49.51
78835;BME280;68187;42.682;23.352;2024-02-26T12:53:47;94580.59;;;15.23;48.15
78835;BME280;68187;42.682;23.352;2024-02-26T12:56:16;94580.03;;;15.34;46.58
78835;BME280;68187;42.682;23.352;2024-02-26T12:58:45;94585.19;;;15.31;46.09
78835;BME280;68187;42.682;23.352;2024-02-26T13:01:15;94574.94;;;15.16;46.60